createdAt,value
2022-11-20T00:01:09.854Z,69.10
2022-11-20T00:03:37.604Z,74.43
2022-11-20T00:06:06.631Z,88.20
2022-11-20T00:08:34.554Z,84.85
2022-11-20T00:11:15.341Z,92.97
2022-11-20T00:13:44.618Z,96.60
2022-11-20T00:16:12.792Z,123.80
2022-11-20T00:18:40.575Z,91.72
2022-11-20T00:21:10.519Z,79.43
2022-11-20T00:23:38.170Z,71.90
2022-11-20T00:26:10.522Z,75.25
2022-11-20T00:28:38.387Z,78.28
2022-11-20T00:31:10.300Z,79.93
2022-11-20T00:34:00.953Z,112.20
2022-11-20T00:36:29.544Z,118.45
2022-11-20T00:38:58.373Z,117.47
2022-11-20T00:41:26.393Z,127.75
2022-11-20T00:43:55.084Z,130.77
2022-11-20T00:46:23.355Z,140.20
2022-11-20T00:48:51.023Z,127.90
2022-11-20T00:54:59.887Z,98.93
2022-11-20T00:57:27.269Z,80.25
2022-11-20T00:59:54.997Z,80.70
2022-11-20T01:02:22.379Z,83.03
2022-11-20T01:04:50.363Z,86.18
2022-11-20T01:07:17.757Z,89.95
2022-11-20T01:09:45.469Z,103.05
2022-11-20T01:12:12.813Z,102.25
2022-11-20T01:14:40.459Z,100.55
2022-11-20T01:17:07.838Z,95.28
2022-11-20T01:19:35.480Z,135.13
2022-11-20T01:22:02.843Z,108.80
2022-11-20T01:24:30.523Z,104.72
2022-11-20T01:26:57.919Z,108.47
2022-11-20T01:29:25.699Z,99.05
2022-11-20T01:31:53.060Z,105.95
2022-11-20T01:34:21.502Z,109.53
2022-11-20T01:37:07.226Z,114.93
2022-11-20T01:39:53.136Z,96.93
2022-11-20T01:42:20.470Z,88.72
2022-11-20T01:44:51.036Z,87.82
2022-11-20T01:47:22.650Z,94.60
2022-11-20T01:49:58.144Z,99.22
2022-11-20T01:52:45.708Z,99.68
2022-11-20T01:55:20.247Z,96.32
2022-11-20T01:57:54.934Z,80.10
2022-11-20T02:00:22.852Z,80.47
2022-11-20T02:02:52.859Z,100.05
2022-11-20T02:05:24.311Z,89.90
2022-11-20T02:07:51.767Z,78.97
2022-11-20T02:10:19.462Z,77.05
2022-11-20T02:12:47.103Z,78.75
2022-11-20T02:15:14.923Z,78.93
2022-11-20T02:17:42.321Z,81.38
2022-11-20T02:20:10.226Z,89.32
2022-11-20T02:22:42.974Z,81.72
2022-11-20T02:25:11.256Z,86.43
2022-11-20T02:31:17.174Z,83.28
2022-11-20T02:33:44.849Z,80.07
2022-11-20T02:36:14.805Z,80.40
2022-11-20T02:38:42.890Z,84.65
2022-11-20T02:41:10.244Z,76.70
2022-11-20T02:43:37.889Z,75.20
2022-11-20T02:46:07.907Z,87.30
2022-11-20T02:48:35.623Z,90.97
2022-11-20T02:51:03.384Z,104.50
2022-11-20T02:53:31.118Z,93.63
2022-11-20T02:55:58.464Z,107.35
2022-11-20T02:58:26.112Z,94.10
2022-11-20T03:00:53.627Z,111.43
2022-11-20T03:03:21.378Z,99.15
2022-11-20T03:05:48.704Z,88.53
2022-11-20T03:08:16.605Z,89.20
2022-11-20T03:10:43.954Z,89.68
2022-11-20T03:13:11.579Z,90.47
2022-11-20T03:15:38.896Z,98.00
2022-11-20T03:18:06.743Z,101.00
2022-11-20T03:20:34.720Z,94.00
2022-11-20T03:23:02.555Z,90.57
2022-11-20T03:25:29.955Z,94.72
2022-11-20T03:27:57.667Z,86.13
2022-11-20T03:30:29.258Z,99.70
2022-11-20T03:32:58.518Z,87.07
2022-11-20T03:35:25.896Z,84.10
2022-11-20T03:37:53.545Z,74.30
2022-11-20T03:40:20.940Z,66.00
2022-11-20T03:42:48.653Z,63.30
2022-11-20T03:45:17.360Z,68.57
2022-11-20T03:47:45.671Z,72.03
2022-11-20T03:50:14.142Z,65.10
2022-11-20T03:52:41.942Z,70.32
2022-11-20T03:55:09.486Z,65.85
2022-11-20T03:57:37.100Z,71.95
2022-11-20T04:00:05.297Z,67.50
2022-11-20T04:02:32.974Z,62.20
2022-11-20T04:05:02.240Z,67.43
2022-11-20T04:07:29.947Z,62.95
2022-11-20T04:09:57.384Z,56.50
2022-11-20T04:12:25.049Z,62.58
2022-11-20T04:14:52.419Z,58.83
2022-11-20T04:17:20.051Z,57.67
2022-11-20T04:19:47.589Z,65.97
2022-11-20T04:22:15.295Z,60.53
2022-11-20T04:24:42.715Z,59.00
2022-11-20T04:27:10.372Z,61.97
2022-11-20T04:29:37.717Z,69.88
2022-11-20T04:32:05.436Z,64.10
2022-11-20T04:34:32.786Z,63.25
2022-11-20T04:37:00.474Z,57.40
2022-11-20T04:39:27.922Z,65.53
2022-11-20T04:41:55.640Z,56.85
2022-11-20T04:44:22.981Z,61.17
2022-11-20T04:46:50.644Z,54.63
2022-11-20T04:49:18.056Z,63.65
2022-11-20T04:51:45.757Z,53.25
2022-11-20T04:54:13.162Z,68.68
2022-11-20T04:56:40.791Z,63.72
2022-11-20T04:59:08.233Z,83.68
2022-11-20T05:01:36.007Z,64.75
2022-11-20T05:04:03.461Z,55.67
2022-11-20T05:06:31.182Z,59.33
2022-11-20T05:08:58.894Z,62.33
2022-11-20T05:11:26.596Z,64.55
2022-11-20T05:14:02.137Z,56.88
2022-11-20T05:16:30.010Z,64.38
2022-11-20T05:18:57.528Z,60.35
2022-11-20T05:21:25.283Z,70.10
2022-11-20T05:23:52.643Z,57.67
2022-11-20T05:26:21.813Z,66.50
2022-11-20T05:28:49.917Z,62.35
2022-11-20T05:31:25.051Z,73.85
2022-11-20T05:33:54.769Z,78.85
2022-11-20T05:36:22.476Z,75.47
2022-11-20T05:38:51.085Z,76.40
2022-11-20T05:41:20.578Z,85.60
2022-11-20T05:43:49.049Z,85.25
2022-11-20T05:49:48.854Z,76.95
2022-11-20T05:52:16.500Z,85.35
2022-11-20T05:54:43.887Z,78.82
2022-11-20T05:57:11.555Z,87.03
2022-11-20T05:59:38.879Z,77.82
2022-11-20T06:02:06.790Z,93.28
2022-11-20T06:04:35.576Z,85.32
2022-11-20T06:07:03.703Z,81.32
2022-11-20T06:09:37.406Z,89.05
2022-11-20T06:12:05.272Z,116.15
2022-11-20T06:14:32.641Z,162.05
2022-11-20T06:17:00.343Z,130.57
2022-11-20T06:19:27.699Z,146.77
2022-11-20T06:21:55.409Z,141.48
2022-11-20T06:24:22.793Z,131.20
2022-11-20T06:26:50.434Z,146.82
2022-11-20T06:29:17.885Z,129.98
2022-11-20T06:31:45.581Z,133.98
2022-11-20T06:34:12.997Z,116.32
2022-11-20T06:36:40.712Z,129.23
2022-11-20T06:39:08.052Z,109.70
2022-11-20T06:41:35.725Z,179.10
2022-11-20T06:44:04.845Z,169.93
2022-11-20T06:46:32.686Z,154.35
2022-11-20T06:49:00.060Z,119.93
2022-11-20T06:51:27.729Z,94.40
2022-11-20T06:53:55.130Z,87.15
2022-11-20T06:56:22.782Z,67.78
2022-11-20T06:58:50.134Z,63.70
2022-11-20T07:02:22.226Z,64.57
2022-11-20T07:04:50.119Z,62.13
2022-11-20T07:07:18.323Z,58.15
2022-11-20T07:09:46.261Z,106.68
2022-11-20T07:12:14.470Z,96.88
2022-11-20T07:14:42.365Z,68.28
2022-11-20T07:17:10.519Z,54.80
2022-11-20T07:19:38.402Z,56.80
2022-11-20T07:22:06.418Z,46.58
2022-11-20T07:24:33.847Z,44.17
2022-11-20T07:27:01.656Z,48.53
2022-11-20T07:29:28.985Z,48.97
2022-11-20T07:32:22.239Z,43.72
2022-11-20T07:34:49.679Z,42.63
2022-11-20T07:37:17.376Z,51.67
2022-11-20T07:39:44.752Z,47.75
2022-11-20T07:42:12.461Z,46.97
2022-11-20T07:44:39.930Z,41.92
2022-11-20T07:47:07.571Z,50.70
2022-11-20T07:49:34.894Z,49.25
2022-11-20T07:52:05.209Z,49.60
2022-11-20T07:54:32.818Z,44.42
2022-11-20T07:57:00.539Z,55.65
2022-11-20T07:59:27.939Z,45.53
2022-11-20T08:01:55.785Z,45.22
2022-11-20T08:04:23.175Z,49.17
2022-11-20T08:06:50.863Z,49.45
2022-11-20T08:09:18.349Z,49.80
2022-11-20T08:11:46.085Z,53.50
2022-11-20T08:14:13.527Z,47.38
2022-11-20T08:16:41.686Z,50.22
2022-11-20T08:19:09.164Z,46.58
2022-11-20T08:21:38.490Z,43.72
2022-11-20T08:24:06.359Z,43.80
2022-11-20T08:26:34.520Z,42.85
2022-11-20T08:29:01.995Z,40.30
2022-11-20T08:31:29.776Z,40.25
2022-11-20T08:33:57.164Z,38.85
2022-11-20T08:36:25.334Z,38.08
2022-11-20T08:38:56.713Z,34.53
2022-11-20T08:41:24.563Z,34.38
2022-11-20T08:44:01.847Z,36.67
2022-11-20T08:46:33.708Z,37.33
2022-11-20T08:49:03.757Z,35.80
2022-11-20T08:51:31.440Z,33.42
2022-11-20T08:57:20.875Z,34.85
2022-11-20T09:00:07.003Z,36.70
2022-11-20T09:02:34.754Z,31.75
2022-11-20T09:05:02.659Z,46.25
2022-11-20T09:07:30.450Z,95.13
2022-11-20T09:10:22.264Z,40.83
2022-11-20T09:12:45.592Z,39.58
2022-11-20T09:15:13.493Z,42.53
2022-11-20T09:17:40.990Z,33.97
2022-11-20T09:20:09.096Z,30.92
2022-11-20T09:22:36.512Z,30.95
2022-11-20T09:25:04.280Z,28.00
2022-11-20T09:27:31.699Z,30.50
2022-11-20T09:29:59.299Z,27.40
2022-11-20T09:32:26.653Z,29.60
2022-11-20T09:34:54.365Z,26.75
2022-11-20T09:37:21.774Z,27.52
2022-11-20T09:39:49.539Z,22.73
2022-11-20T09:42:19.767Z,21.15
2022-11-20T09:44:55.000Z,25.55
2022-11-20T09:47:28.252Z,27.33
2022-11-20T09:53:33.975Z,28.60
2022-11-20T09:56:12.821Z,25.35
2022-11-20T09:58:45.160Z,28.73
2022-11-20T10:01:17.301Z,28.27
2022-11-20T10:03:44.698Z,27.60
2022-11-20T10:09:50.477Z,32.25
2022-11-20T10:12:53.497Z,27.00
2022-11-20T10:18:11.769Z,28.05
2022-11-20T10:20:45.416Z,26.85
2022-11-20T10:23:26.149Z,30.42
2022-11-20T10:26:01.883Z,26.65
2022-11-20T10:28:35.451Z,30.50
2022-11-20T10:31:09.225Z,25.35
2022-11-20T10:33:57.181Z,24.67
2022-11-20T10:36:29.058Z,22.35
2022-11-20T10:39:07.157Z,21.20
2022-11-20T10:41:38.046Z,21.67
2022-11-20T10:44:05.770Z,22.88
2022-11-20T10:46:39.678Z,22.08
2022-11-20T10:49:25.192Z,20.83
2022-11-20T10:52:11.304Z,21.90
2022-11-20T10:54:51.196Z,24.95
2022-11-20T10:57:26.233Z,21.70
2022-11-20T11:00:00.965Z,19.15
2022-11-20T11:02:37.259Z,20.85
2022-11-20T11:05:14.703Z,18.27
2022-11-20T11:07:42.571Z,20.42
2022-11-20T11:10:33.408Z,19.95
2022-11-20T11:13:00.783Z,20.58
2022-11-20T11:15:37.940Z,20.80
2022-11-20T11:18:05.701Z,19.73
2022-11-20T11:20:33.371Z,18.88
2022-11-20T11:23:00.965Z,19.98
2022-11-20T11:25:30.261Z,28.13
2022-11-20T11:27:59.133Z,21.58
2022-11-20T11:30:27.605Z,20.98
2022-11-20T11:33:05.404Z,23.83
2022-11-20T11:35:33.322Z,18.92
2022-11-20T11:38:08.505Z,27.05
2022-11-20T11:40:37.133Z,21.95
2022-11-20T11:43:17.702Z,23.30
2022-11-20T11:45:52.890Z,17.83
2022-11-20T11:48:20.273Z,22.00
2022-11-20T11:50:51.396Z,19.83
2022-11-20T11:53:20.034Z,21.55
2022-11-20T11:56:01.786Z,22.80
2022-11-20T11:58:29.140Z,22.50
2022-11-20T12:01:15.357Z,23.13
2022-11-20T12:03:43.597Z,20.20
2022-11-20T12:06:15.453Z,21.88
2022-11-20T12:08:58.828Z,22.35
2022-11-20T12:11:32.295Z,18.00
2022-11-20T12:13:59.696Z,21.02
2022-11-20T12:16:27.350Z,21.85
2022-11-20T12:18:54.763Z,25.25
2022-11-20T12:25:23.371Z,18.77
2022-11-20T12:27:53.811Z,19.23
2022-11-20T12:30:22.212Z,21.10
2022-11-20T12:32:55.793Z,20.15
2022-11-20T12:35:38.307Z,19.48
2022-11-20T12:38:21.039Z,20.65
2022-11-20T12:43:25.805Z,20.55
2022-11-20T12:45:53.156Z,17.08
2022-11-20T12:48:44.987Z,17.40
2022-11-20T12:53:58.758Z,17.95
2022-11-20T12:56:38.243Z,20.63
2022-11-20T12:59:14.748Z,15.73
2022-11-20T13:01:48.930Z,17.05
2022-11-20T13:04:22.536Z,15.57
2022-11-20T13:06:50.087Z,15.90
2022-11-20T13:09:20.256Z,22.77
2022-11-20T13:15:32.146Z,19.15
2022-11-20T13:18:01.214Z,18.55
2022-11-20T13:20:29.208Z,16.55
2022-11-20T13:22:57.478Z,14.40
2022-11-20T13:25:24.825Z,21.70
2022-11-20T13:27:53.059Z,19.08
2022-11-20T13:30:23.862Z,19.02
2022-11-20T13:32:52.856Z,16.98
2022-11-20T13:35:46.327Z,22.15
2022-11-20T13:38:15.401Z,20.08
2022-11-20T13:40:56.516Z,16.67
2022-11-20T13:43:38.576Z,19.05
2022-11-20T13:46:07.358Z,19.67
2022-11-20T13:48:40.045Z,16.75
2022-11-20T13:53:43.962Z,16.02
2022-11-20T13:56:22.989Z,17.15
2022-11-20T13:59:04.962Z,28.17
2022-11-20T14:01:33.573Z,16.40
2022-11-20T14:04:07.423Z,17.20
2022-11-20T14:06:44.997Z,17.40
2022-11-20T14:09:32.207Z,23.52
2022-11-20T14:11:59.670Z,19.58
2022-11-20T14:14:28.668Z,18.58
2022-11-20T14:17:14.745Z,21.27
2022-11-20T14:19:43.034Z,24.90
2022-11-20T14:22:19.152Z,20.50
2022-11-20T14:24:50.256Z,23.60
2022-11-20T14:27:19.281Z,19.13
2022-11-20T14:29:48.217Z,23.27
2022-11-20T14:32:16.557Z,22.70
2022-11-20T14:34:45.419Z,19.65
2022-11-20T14:37:16.746Z,23.02
2022-11-20T14:39:50.364Z,21.38
2022-11-20T14:42:22.029Z,27.20
2022-11-20T14:44:50.536Z,25.75
2022-11-20T14:47:28.270Z,25.27
2022-11-20T14:49:56.662Z,23.88
2022-11-20T14:52:28.160Z,20.05
2022-11-20T14:54:57.310Z,23.05
2022-11-20T14:57:25.185Z,20.33
2022-11-20T15:00:04.115Z,23.42
2022-11-20T15:02:31.762Z,27.83
2022-11-20T15:08:27.414Z,24.90
2022-11-20T15:10:57.921Z,30.63
2022-11-20T15:13:32.899Z,26.70
2022-11-20T15:16:01.752Z,30.27
2022-11-20T15:18:31.871Z,35.22
2022-11-20T15:21:01.862Z,36.25
2022-11-20T15:23:30.050Z,36.42
2022-11-20T15:25:57.818Z,34.67
2022-11-20T15:28:40.220Z,34.70
2022-11-20T15:31:07.999Z,35.13
2022-11-20T15:33:35.354Z,33.47
2022-11-20T15:39:35.327Z,24.88
2022-11-20T15:42:03.020Z,29.88
2022-11-20T15:44:30.410Z,29.98
2022-11-20T15:46:58.068Z,29.63
2022-11-20T15:49:25.540Z,26.52
2022-11-20T15:51:53.328Z,30.65
2022-11-20T15:54:22.780Z,34.65
2022-11-20T15:56:51.189Z,31.50
2022-11-20T15:59:18.607Z,40.80
2022-11-20T16:01:46.345Z,38.03
2022-11-20T16:04:14.880Z,38.75
2022-11-20T16:10:14.936Z,40.03
2022-11-20T16:12:42.664Z,42.65
2022-11-20T16:15:13.655Z,43.20
2022-11-20T16:17:41.498Z,41.47
2022-11-20T16:20:11.564Z,37.65
2022-11-20T16:22:39.186Z,37.05
2022-11-20T16:25:06.633Z,43.78
2022-11-20T16:27:34.299Z,43.38
2022-11-20T16:30:01.621Z,41.65
2022-11-20T16:32:29.261Z,40.08
2022-11-20T16:34:56.921Z,43.28
2022-11-20T16:37:24.592Z,45.80
2022-11-20T16:39:52.068Z,47.47
2022-11-20T16:42:19.691Z,51.55
2022-11-20T16:44:47.248Z,50.30
2022-11-20T16:47:15.411Z,49.10
2022-11-20T16:49:43.160Z,42.78
2022-11-20T16:52:10.941Z,46.90
2022-11-20T16:54:38.717Z,46.03
2022-11-20T16:57:06.387Z,43.55
2022-11-20T16:59:33.927Z,46.00
2022-11-20T17:02:01.995Z,42.92
2022-11-20T17:04:29.599Z,46.95
2022-11-20T17:06:57.643Z,45.47
2022-11-20T17:09:25.137Z,36.92
2022-11-20T17:11:53.001Z,43.05
2022-11-20T17:14:23.527Z,43.88
2022-11-20T17:16:51.721Z,46.85
2022-11-20T17:19:21.170Z,42.13
2022-11-20T17:21:48.859Z,45.75
2022-11-20T17:24:17.866Z,52.83
2022-11-20T17:26:45.709Z,57.15
2022-11-20T17:29:14.307Z,54.65
2022-11-20T17:31:42.492Z,61.17
2022-11-20T17:34:13.992Z,63.17
2022-11-20T17:36:45.284Z,65.63
2022-11-20T17:39:13.818Z,67.00
2022-11-20T17:41:41.805Z,59.03
2022-11-20T17:44:10.296Z,55.10
2022-11-20T17:50:00.113Z,53.28
2022-11-20T17:52:27.762Z,53.13
2022-11-20T17:54:55.209Z,49.92
2022-11-20T17:57:23.677Z,47.85
2022-11-20T17:59:51.131Z,43.88
2022-11-20T18:02:18.953Z,48.65
2022-11-20T18:04:46.379Z,46.60
2022-11-20T18:07:14.062Z,45.10
2022-11-20T18:09:41.576Z,46.35
2022-11-20T18:12:09.288Z,38.25
2022-11-20T18:14:36.769Z,44.75
2022-11-20T18:17:05.806Z,44.03
2022-11-20T18:23:05.419Z,54.47
2022-11-20T18:25:33.015Z,48.25
2022-11-20T18:28:00.579Z,42.30
2022-11-20T18:33:50.556Z,43.90
2022-11-20T18:39:50.216Z,43.72
2022-11-20T18:42:17.859Z,45.80
2022-11-20T18:44:52.393Z,49.25
2022-11-20T18:47:27.427Z,55.10
2022-11-20T18:49:55.591Z,53.47
2022-11-20T18:52:27.356Z,55.10
2022-11-20T18:54:55.134Z,57.13
2022-11-20T18:57:23.856Z,50.67
2022-11-20T18:59:51.367Z,62.30
2022-11-20T19:02:19.549Z,50.38
2022-11-20T19:04:47.232Z,59.92
2022-11-20T19:07:15.352Z,58.17
2022-11-20T19:09:45.512Z,54.30
2022-11-20T19:12:13.495Z,58.45
2022-11-20T19:21:33.282Z,53.47
2022-11-20T19:24:02.064Z,52.90
2022-11-20T19:26:29.871Z,51.90
2022-11-20T19:28:57.495Z,58.70
2022-11-20T19:31:25.516Z,54.42
2022-11-20T19:33:53.900Z,50.70
2022-11-20T19:36:25.840Z,51.92
2022-11-20T19:38:53.876Z,44.17
2022-11-20T19:41:22.488Z,51.58
2022-11-20T19:43:50.134Z,60.20
2022-11-20T19:46:17.739Z,60.88
2022-11-20T19:48:45.446Z,57.15
2022-11-20T19:54:34.873Z,82.97
2022-11-20T19:57:04.497Z,85.57
2022-11-20T19:59:31.984Z,67.55
2022-11-20T20:01:59.850Z,75.70
2022-11-20T20:04:27.663Z,66.13
2022-11-20T20:06:55.665Z,67.30
2022-11-20T20:09:23.422Z,63.42
2022-11-20T20:11:51.293Z,61.47
2022-11-20T20:14:21.370Z,64.35
2022-11-20T20:16:49.292Z,69.15
2022-11-20T20:19:16.792Z,71.35
2022-11-20T20:21:47.383Z,73.35
2022-11-20T20:24:14.813Z,78.07
2022-11-20T20:29:51.061Z,73.82
2022-11-20T20:32:27.733Z,70.95
2022-11-20T20:46:11.805Z,97.43
2022-11-20T20:48:39.530Z,95.22
2022-11-20T20:51:07.006Z,102.90
2022-11-20T20:53:38.762Z,87.22
2022-11-20T20:56:06.472Z,105.60
2022-11-20T20:58:36.672Z,89.10
2022-11-20T21:01:05.384Z,85.40
2022-11-20T21:03:33.710Z,80.45
2022-11-20T21:06:01.365Z,79.18
2022-11-20T21:08:29.275Z,93.90
2022-11-20T21:11:02.621Z,76.35
2022-11-20T21:16:52.466Z,79.10
2022-11-20T21:19:20.308Z,65.47
2022-11-20T21:21:47.694Z,72.28
2022-11-20T21:27:37.561Z,81.35
2022-11-20T21:30:05.363Z,93.28
2022-11-20T21:32:32.774Z,104.72
2022-11-20T21:35:03.030Z,96.20
2022-11-20T21:37:36.025Z,312.02
2022-11-20T21:40:07.702Z,355.95
2022-11-20T21:42:35.206Z,172.63
2022-11-20T21:45:06.172Z,157.30
2022-11-20T21:47:33.702Z,274.05
2022-11-20T21:50:01.615Z,373.30
2022-11-20T21:52:29.074Z,325.08
2022-11-20T21:54:56.801Z,490.60
2022-11-20T21:57:24.191Z,410.90
2022-11-20T21:59:52.236Z,208.27
2022-11-20T22:02:19.729Z,185.65
2022-11-20T22:04:48.725Z,140.27
2022-11-20T22:07:16.476Z,153.45
2022-11-20T22:09:44.617Z,145.55
2022-11-20T22:12:12.004Z,111.88
2022-11-20T22:14:39.631Z,112.63
2022-11-20T22:17:12.002Z,102.40
2022-11-20T22:19:45.742Z,94.15
2022-11-20T22:22:13.196Z,94.07
2022-11-20T22:24:43.502Z,92.57
2022-11-20T22:30:14.779Z,107.43
2022-11-20T22:32:42.242Z,87.65
2022-11-20T22:35:09.992Z,117.78
2022-11-20T22:37:37.385Z,117.15
2022-11-20T22:40:05.414Z,113.00
2022-11-20T22:42:32.860Z,130.02
2022-11-20T22:45:00.632Z,145.85
2022-11-20T22:47:28.104Z,162.05
2022-11-20T22:49:55.745Z,174.60
2022-11-20T22:52:23.144Z,135.35
2022-11-20T22:54:50.795Z,130.40
2022-11-20T22:57:18.174Z,111.95
2022-11-20T23:03:28.270Z,102.82
2022-11-20T23:05:58.466Z,122.72
2022-11-20T23:08:26.024Z,165.20
2022-11-20T23:10:58.046Z,170.38
2022-11-20T23:13:25.427Z,179.20
2022-11-20T23:15:53.170Z,133.20
2022-11-20T23:18:20.573Z,127.63
2022-11-20T23:20:48.241Z,126.78
2022-11-20T23:23:15.663Z,133.68
2022-11-20T23:25:43.310Z,134.15
2022-11-20T23:28:10.827Z,120.22
2022-11-20T23:30:38.578Z,117.18
2022-11-20T23:33:05.939Z,122.55
2022-11-20T23:35:37.937Z,121.00
2022-11-20T23:38:05.420Z,127.00
2022-11-20T23:40:38.688Z,124.43
2022-11-20T23:43:08.645Z,119.32
2022-11-20T23:45:37.922Z,129.73
2022-11-20T23:48:05.488Z,121.30
2022-11-20T23:50:33.438Z,127.45
2022-11-20T23:53:01.244Z,115.43
2022-11-20T23:55:28.996Z,111.70
2022-11-20T23:57:56.484Z,130.98
